sensor_id;sensor_type;location;lat;lon;timestamp;pressure;altitude;pressure_sealevel;temperature;humidity
12213;BME280;6169;44.158;22.788;2023-03-22T00:03:33;100831.19;;;16.15;55.39
12213;BME280;6169;44.158;22.788;2023-03-22T00:08:35;100829.28;;;16.20;55.53
12213;BME280;6169;44.158;22.788;2023-03-22T00:13:38;100831.53;;;16.39;54.52
12213;BME280;6169;44.158;22.788;2023-03-22T00:18:44;100838.63;;;16.35;54.28
12213;BME280;6169;44.158;22.788;2023-03-22T00:23:46;100823.81;;;16.31;54.42
12213;BME280;6169;44.158;22.788;2023-03-22T00:28:48;100835.31;;;16.22;54.25
12213;BME280;6169;44.158;22.788;2023-03-22T00:33:52;100839.19;;;16.32;54.53
12213;BME280;6169;44.158;22.788;2023-03-22T00:38:54;100841.69;;;16.54;53.47
12213;BME280;6169;44.158;22.788;2023-03-22T00:43:56;100836.47;;;16.47;54.14
12213;BME280;6169;44.158;22.788;2023-03-22T00:49:00;100841.69;;;16.64;53.56
12213;BME280;6169;44.158;22.788;2023-03-22T00:54:02;100844.44;;;16.59;53.65
12213;BME280;6169;44.158;22.788;2023-03-22T00:59:04;100844.13;;;16.40;54.58
12213;BME280;6169;44.158;22.788;2023-03-22T01:04:07;100841.09;;;16.31;55.09
12213;BME280;6169;44.158;22.788;2023-03-22T01:09:17;100838.84;;;16.08;55.71
12213;BME280;6169;44.158;22.788;2023-03-22T01:14:24;100845.38;;;15.81;57.15
12213;BME280;6169;44.158;22.788;2023-03-22T01:19:28;100842.09;;;15.84;57.12
12213;BME280;6169;44.158;22.788;2023-03-22T01:24:30;100848.34;;;15.79;57.21
12213;BME280;6169;44.158;22.788;2023-03-22T01:29:32;100834.56;;;15.54;58.43
12213;BME280;6169;44.158;22.788;2023-03-22T01:34:36;100838.91;;;15.50;58.45
12213;BME280;6169;44.158;22.788;2023-03-22T01:39:38;100837.97;;;15.81;56.46
12213;BME280;6169;44.158;22.788;2023-03-22T01:44:42;100831.41;;;16.03;56.09
12213;BME280;6169;44.158;22.788;2023-03-22T01:49:48;100828.47;;;16.15;55.54
12213;BME280;6169;44.158;22.788;2023-03-22T01:54:51;100824.34;;;16.12;55.78
12213;BME280;6169;44.158;22.788;2023-03-22T01:59:55;100827.00;;;15.81;56.54
12213;BME280;6169;44.158;22.788;2023-03-22T02:04:59;100837.44;;;15.37;58.27
12213;BME280;6169;44.158;22.788;2023-03-22T02:10:08;100846.94;;;15.19;58.39
12213;BME280;6169;44.158;22.788;2023-03-22T02:15:12;100835.66;;;15.53;57.87
12213;BME280;6169;44.158;22.788;2023-03-22T02:20:50;100831.94;;;15.85;55.98
12213;BME280;6169;44.158;22.788;2023-03-22T02:31:33;100838.72;;;15.72;56.74
12213;BME280;6169;44.158;22.788;2023-03-22T02:37:08;100835.78;;;15.84;55.63
12213;BME280;6169;44.158;22.788;2023-03-22T02:42:24;100844.94;;;15.09;58.87
12213;BME280;6169;44.158;22.788;2023-03-22T02:47:37;100852.47;;;15.29;57.83
12213;BME280;6169;44.158;22.788;2023-03-22T02:52:45;100858.97;;;15.18;58.22
12213;BME280;6169;44.158;22.788;2023-03-22T02:57:55;100859.16;;;15.49;56.82
12213;BME280;6169;44.158;22.788;2023-03-22T03:03:04;100870.56;;;14.93;57.21
12213;BME280;6169;44.158;22.788;2023-03-22T03:08:12;100878.97;;;14.81;58.73
12213;BME280;6169;44.158;22.788;2023-03-22T03:13:18;100880.25;;;14.74;57.95
12213;BME280;6169;44.158;22.788;2023-03-22T03:18:30;100884.09;;;15.10;56.33
12213;BME280;6169;44.158;22.788;2023-03-22T03:23:46;100881.38;;;16.10;53.79
12213;BME280;6169;44.158;22.788;2023-03-22T03:28:56;100878.59;;;15.95;54.17
12213;BME280;6169;44.158;22.788;2023-03-22T03:34:07;100884.56;;;15.81;53.70
12213;BME280;6169;44.158;22.788;2023-03-22T03:39:13;100881.41;;;15.15;55.23
12213;BME280;6169;44.158;22.788;2023-03-22T03:44:18;100889.03;;;14.48;56.81
12213;BME280;6169;44.158;22.788;2023-03-22T03:49:22;100887.47;;;14.58;55.33
12213;BME280;6169;44.158;22.788;2023-03-22T03:54:24;100893.53;;;14.11;56.52
12213;BME280;6169;44.158;22.788;2023-03-22T03:59:28;100885.63;;;13.87;57.99
12213;BME280;6169;44.158;22.788;2023-03-22T04:04:30;100887.75;;;14.29;56.47
12213;BME280;6169;44.158;22.788;2023-03-22T04:09:36;100883.84;;;13.98;57.87
12213;BME280;6169;44.158;22.788;2023-03-22T04:14:40;100892.22;;;13.91;59.16
12213;BME280;6169;44.158;22.788;2023-03-22T04:19:42;100894.66;;;13.71;61.00
12213;BME280;6169;44.158;22.788;2023-03-22T04:24:45;100901.75;;;14.11;59.32
12213;BME280;6169;44.158;22.788;2023-03-22T04:29:51;100905.63;;;14.42;59.02
12213;BME280;6169;44.158;22.788;2023-03-22T04:34:54;100903.50;;;14.71;57.49
12213;BME280;6169;44.158;22.788;2023-03-22T04:39:56;100917.00;;;15.15;55.53
12213;BME280;6169;44.158;22.788;2023-03-22T04:45:00;100921.69;;;14.82;56.31
12213;BME280;6169;44.158;22.788;2023-03-22T04:50:04;100933.84;;;14.97;55.82
12213;BME280;6169;44.158;22.788;2023-03-22T04:55:07;100931.34;;;14.95;55.21
12213;BME280;6169;44.158;22.788;2023-03-22T05:00:12;100942.47;;;14.83;55.80
12213;BME280;6169;44.158;22.788;2023-03-22T05:05:15;100928.97;;;14.49;57.73
12213;BME280;6169;44.158;22.788;2023-03-22T05:10:17;100944.56;;;14.71;56.87
12213;BME280;6169;44.158;22.788;2023-03-22T05:15:21;100936.03;;;14.67;57.23
12213;BME280;6169;44.158;22.788;2023-03-22T05:20:23;100954.06;;;14.41;57.90
12213;BME280;6169;44.158;22.788;2023-03-22T05:25:25;100954.72;;;14.76;57.25
12213;BME280;6169;44.158;22.788;2023-03-22T05:30:29;100925.16;;;14.23;58.51
12213;BME280;6169;44.158;22.788;2023-03-22T05:35:33;100969.22;;;14.27;59.23
12213;BME280;6169;44.158;22.788;2023-03-22T05:40:35;100964.09;;;14.58;57.86
12213;BME280;6169;44.158;22.788;2023-03-22T05:45:39;100973.50;;;14.67;57.26
12213;BME280;6169;44.158;22.788;2023-03-22T05:50:41;100968.75;;;14.62;57.17
12213;BME280;6169;44.158;22.788;2023-03-22T05:55:43;100972.41;;;14.95;57.04
12213;BME280;6169;44.158;22.788;2023-03-22T06:00:47;100970.16;;;14.65;58.97
12213;BME280;6169;44.158;22.788;2023-03-22T06:05:50;100966.91;;;15.22;56.78
12213;BME280;6169;44.158;22.788;2023-03-22T06:10:54;100968.97;;;15.05;58.44
12213;BME280;6169;44.158;22.788;2023-03-22T06:16:00;100978.22;;;14.27;62.35
12213;BME280;6169;44.158;22.788;2023-03-22T06:21:03;100990.41;;;15.18;59.29
12213;BME280;6169;44.158;22.788;2023-03-22T06:26:05;100995.81;;;15.72;57.20
12213;BME280;6169;44.158;22.788;2023-03-22T06:31:10;101007.84;;;15.71;57.11
12213;BME280;6169;44.158;22.788;2023-03-22T06:36:12;101010.28;;;16.15;55.80
12213;BME280;6169;44.158;22.788;2023-03-22T06:41:14;101003.31;;;16.50;54.63
12213;BME280;6169;44.158;22.788;2023-03-22T06:46:18;101008.34;;;16.68;54.07
12213;BME280;6169;44.158;22.788;2023-03-22T06:51:20;101021.81;;;16.22;55.57
12213;BME280;6169;44.158;22.788;2023-03-22T06:56:23;101030.38;;;16.26;55.62
12213;BME280;6169;44.158;22.788;2023-03-22T07:01:26;101037.94;;;15.34;58.45
12213;BME280;6169;44.158;22.788;2023-03-22T07:06:28;101038.88;;;15.18;58.13
12213;BME280;6169;44.158;22.788;2023-03-22T07:11:32;101046.38;;;15.97;56.13
12213;BME280;6169;44.158;22.788;2023-03-22T07:16:36;101051.09;;;15.64;56.97
12213;BME280;6169;44.158;22.788;2023-03-22T07:21:38;101051.28;;;15.90;56.67
12213;BME280;6169;44.158;22.788;2023-03-22T07:26:40;101049.75;;;16.14;56.13
12213;BME280;6169;44.158;22.788;2023-03-22T07:31:44;101036.53;;;16.01;55.88
12213;BME280;6169;44.158;22.788;2023-03-22T07:36:46;101059.63;;;16.10;55.71
12213;BME280;6169;44.158;22.788;2023-03-22T07:41:48;101057.75;;;16.16;56.24
12213;BME280;6169;44.158;22.788;2023-03-22T07:46:52;101058.53;;;16.11;56.68
12213;BME280;6169;44.158;22.788;2023-03-22T07:51:54;101067.50;;;16.44;55.13
12213;BME280;6169;44.158;22.788;2023-03-22T07:56:56;101066.28;;;16.77;54.74
12213;BME280;6169;44.158;22.788;2023-03-22T08:02:00;101068.19;;;16.82;53.78
12213;BME280;6169;44.158;22.788;2023-03-22T08:07:02;101070.00;;;17.34;53.48
12213;BME280;6169;44.158;22.788;2023-03-22T08:12:04;101072.75;;;17.39;52.70
12213;BME280;6169;44.158;22.788;2023-03-22T08:17:08;101074.94;;;17.68;51.80
12213;BME280;6169;44.158;22.788;2023-03-22T08:22:11;101071.34;;;17.88;51.44
12213;BME280;6169;44.158;22.788;2023-03-22T08:27:15;101063.94;;;17.98;50.05
12213;BME280;6169;44.158;22.788;2023-03-22T08:32:19;101071.69;;;18.77;47.08
12213;BME280;6169;44.158;22.788;2023-03-22T08:37:22;101073.25;;;18.18;48.62
12213;BME280;6169;44.158;22.788;2023-03-22T08:42:24;101075.53;;;18.76;46.59
12213;BME280;6169;44.158;22.788;2023-03-22T08:47:28;101075.19;;;19.32;44.14
12213;BME280;6169;44.158;22.788;2023-03-22T08:52:31;101079.13;;;19.21;45.00
12213;BME280;6169;44.158;22.788;2023-03-22T08:57:33;101076.00;;;19.32;44.68
12213;BME280;6169;44.158;22.788;2023-03-22T09:02:37;101081.44;;;19.48;43.59
12213;BME280;6169;44.158;22.788;2023-03-22T09:07:39;101080.88;;;19.06;44.51
12213;BME280;6169;44.158;22.788;2023-03-22T09:12:42;101081.81;;;19.31;43.89
12213;BME280;6169;44.158;22.788;2023-03-22T09:17:46;101077.75;;;19.57;43.13
12213;BME280;6169;44.158;22.788;2023-03-22T09:22:48;101070.81;;;19.65;43.59
12213;BME280;6169;44.158;22.788;2023-03-22T09:27:50;101060.06;;;20.46;42.04
12213;BME280;6169;44.158;22.788;2023-03-22T09:32:54;101068.34;;;20.89;40.83
12213;BME280;6169;44.158;22.788;2023-03-22T09:37:56;101060.44;;;20.58;40.54
12213;BME280;6169;44.158;22.788;2023-03-22T09:43:03;101049.44;;;21.15;39.91
12213;BME280;6169;44.158;22.788;2023-03-22T09:48:13;101052.13;;;20.39;40.15
12213;BME280;6169;44.158;22.788;2023-03-22T09:53:19;101053.50;;;20.85;39.85
12213;BME280;6169;44.158;22.788;2023-03-22T09:58:25;101052.38;;;20.43;41.72
12213;BME280;6169;44.158;22.788;2023-03-22T10:03:59;101055.78;;;20.78;39.94
12213;BME280;6169;44.158;22.788;2023-03-22T10:09:08;101055.25;;;21.32;39.24
12213;BME280;6169;44.158;22.788;2023-03-22T10:14:25;101051.59;;;21.37;38.11
12213;BME280;6169;44.158;22.788;2023-03-22T10:19:34;101048.44;;;20.25;38.74
12213;BME280;6169;44.158;22.788;2023-03-22T10:24:42;101047.59;;;20.24;39.73
12213;BME280;6169;44.158;22.788;2023-03-22T10:29:50;101041.84;;;20.21;40.21
12213;BME280;6169;44.158;22.788;2023-03-22T10:34:56;101041.00;;;21.25;37.02
12213;BME280;6169;44.158;22.788;2023-03-22T10:40:00;101039.16;;;21.02;37.60
12213;BME280;6169;44.158;22.788;2023-03-22T10:45:12;101040.38;;;20.71;39.29
12213;BME280;6169;44.158;22.788;2023-03-22T10:50:20;101016.09;;;21.44;38.50
12213;BME280;6169;44.158;22.788;2023-03-22T10:55:26;101038.13;;;22.65;37.38
12213;BME280;6169;44.158;22.788;2023-03-22T11:00:28;101041.13;;;22.82;36.35
12213;BME280;6169;44.158;22.788;2023-03-22T11:05:32;101030.22;;;21.75;38.99
12213;BME280;6169;44.158;22.788;2023-03-22T11:10:34;101028.81;;;22.05;38.57
12213;BME280;6169;44.158;22.788;2023-03-22T11:15:39;101018.03;;;22.04;37.22
12213;BME280;6169;44.158;22.788;2023-03-22T11:20:53;101013.78;;;22.76;36.26
12213;BME280;6169;44.158;22.788;2023-03-22T11:25:59;101013.78;;;22.89;35.89
12213;BME280;6169;44.158;22.788;2023-03-22T11:31:07;101002.03;;;21.87;37.32
12213;BME280;6169;44.158;22.788;2023-03-22T11:36:16;100998.41;;;21.59;38.33
12213;BME280;6169;44.158;22.788;2023-03-22T11:41:21;100992.00;;;20.74;39.31
12213;BME280;6169;44.158;22.788;2023-03-22T11:46:25;100991.78;;;21.08;37.51
12213;BME280;6169;44.158;22.788;2023-03-22T11:51:30;100983.22;;;21.24;37.67
12213;BME280;6169;44.158;22.788;2023-03-22T11:56:39;100981.22;;;21.62;37.41
12213;BME280;6169;44.158;22.788;2023-03-22T12:01:46;100982.22;;;21.66;39.17
12213;BME280;6169;44.158;22.788;2023-03-22T12:06:52;100981.53;;;21.28;37.57
12213;BME280;6169;44.158;22.788;2023-03-22T12:11:58;100975.16;;;21.60;37.14
12213;BME280;6169;44.158;22.788;2023-03-22T12:17:06;100966.88;;;22.15;36.03
12213;BME280;6169;44.158;22.788;2023-03-22T12:22:15;100951.09;;;20.95;38.02
12213;BME280;6169;44.158;22.788;2023-03-22T12:27:21;100957.13;;;20.78;37.77
12213;BME280;6169;44.158;22.788;2023-03-22T12:32:27;100952.66;;;21.34;36.22
12213;BME280;6169;44.158;22.788;2023-03-22T12:37:33;100960.03;;;20.30;38.00
12213;BME280;6169;44.158;22.788;2023-03-22T12:42:39;100949.91;;;20.63;37.27
12213;BME280;6169;44.158;22.788;2023-03-22T12:47:46;100952.59;;;20.68;36.99
12213;BME280;6169;44.158;22.788;2023-03-22T12:52:52;100952.56;;;21.06;34.78
12213;BME280;6169;44.158;22.788;2023-03-22T12:57:56;100949.75;;;20.92;34.86
12213;BME280;6169;44.158;22.788;2023-03-22T13:03:00;100945.97;;;21.95;34.41
12213;BME280;6169;44.158;22.788;2023-03-22T13:08:04;100945.13;;;20.69;38.14
12213;BME280;6169;44.158;22.788;2023-03-22T13:13:40;100944.81;;;21.08;37.84
12213;BME280;6169;44.158;22.788;2023-03-22T13:18:59;100937.03;;;21.10;37.66
12213;BME280;6169;44.158;22.788;2023-03-22T13:24:21;100940.63;;;20.92;38.13
12213;BME280;6169;44.158;22.788;2023-03-22T13:29:25;100933.84;;;20.65;38.71
12213;BME280;6169;44.158;22.788;2023-03-22T13:34:37;100925.84;;;20.45;38.66
12213;BME280;6169;44.158;22.788;2023-03-22T13:39:42;100937.06;;;20.11;39.03
12213;BME280;6169;44.158;22.788;2023-03-22T13:44:53;100934.50;;;20.76;38.32
12213;BME280;6169;44.158;22.788;2023-03-22T13:50:02;100930.31;;;20.98;38.14
12213;BME280;6169;44.158;22.788;2023-03-22T13:55:37;100937.75;;;21.16;38.28
12213;BME280;6169;44.158;22.788;2023-03-22T14:00:51;100935.84;;;20.79;39.10
12213;BME280;6169;44.158;22.788;2023-03-22T14:06:03;100942.94;;;21.04;38.68
12213;BME280;6169;44.158;22.788;2023-03-22T14:11:24;100932.72;;;21.18;38.53
12213;BME280;6169;44.158;22.788;2023-03-22T14:16:34;100938.09;;;21.61;37.42
12213;BME280;6169;44.158;22.788;2023-03-22T14:21:38;100934.63;;;21.04;37.80
12213;BME280;6169;44.158;22.788;2023-03-22T14:26:46;100937.94;;;21.52;37.13
12213;BME280;6169;44.158;22.788;2023-03-22T14:31:58;100941.16;;;21.87;36.40
12213;BME280;6169;44.158;22.788;2023-03-22T14:37:02;100944.91;;;21.50;37.02
12213;BME280;6169;44.158;22.788;2023-03-22T14:42:17;100950.59;;;21.72;35.54
12213;BME280;6169;44.158;22.788;2023-03-22T14:47:26;100940.53;;;21.16;36.67
12213;BME280;6169;44.158;22.788;2023-03-22T14:52:34;100947.41;;;21.93;35.59
12213;BME280;6169;44.158;22.788;2023-03-22T14:57:41;100946.69;;;22.01;35.43
12213;BME280;6169;44.158;22.788;2023-03-22T15:02:48;100947.81;;;21.86;35.59
12213;BME280;6169;44.158;22.788;2023-03-22T15:07:52;100954.75;;;22.11;35.02
12213;BME280;6169;44.158;22.788;2023-03-22T15:12:57;100951.91;;;21.75;34.56
12213;BME280;6169;44.158;22.788;2023-03-22T15:18:00;100962.19;;;21.42;35.44
12213;BME280;6169;44.158;22.788;2023-03-22T15:23:12;100941.03;;;21.18;36.25
12213;BME280;6169;44.158;22.788;2023-03-22T15:28:18;100958.97;;;20.88;37.39
12213;BME280;6169;44.158;22.788;2023-03-22T15:33:23;100963.63;;;20.68;37.89
12213;BME280;6169;44.158;22.788;2023-03-22T15:38:28;100972.59;;;20.79;38.36
12213;BME280;6169;44.158;22.788;2023-03-22T15:43:37;100986.34;;;20.22;39.65
12213;BME280;6169;44.158;22.788;2023-03-22T15:48:41;100990.34;;;20.35;39.84
12213;BME280;6169;44.158;22.788;2023-03-22T15:53:44;100989.22;;;20.55;39.25
12213;BME280;6169;44.158;22.788;2023-03-22T15:58:53;101004.53;;;20.47;39.33
12213;BME280;6169;44.158;22.788;2023-03-22T16:03:59;101001.78;;;19.99;40.39
12213;BME280;6169;44.158;22.788;2023-03-22T16:09:01;101013.63;;;19.76;40.80
12213;BME280;6169;44.158;22.788;2023-03-22T16:14:05;101024.44;;;18.99;41.50
12213;BME280;6169;44.158;22.788;2023-03-22T16:19:08;101041.06;;;18.83;43.49
12213;BME280;6169;44.158;22.788;2023-03-22T16:24:11;101052.75;;;18.55;44.09
12213;BME280;6169;44.158;22.788;2023-03-22T16:29:15;101062.50;;;18.91;44.31
12213;BME280;6169;44.158;22.788;2023-03-22T16:34:17;101067.06;;;19.51;46.47
12213;BME280;6169;44.158;22.788;2023-03-22T16:39:19;101068.97;;;19.16;47.80
12213;BME280;6169;44.158;22.788;2023-03-22T16:44:23;101071.53;;;19.02;49.41
12213;BME280;6169;44.158;22.788;2023-03-22T16:49:25;101060.31;;;18.88;51.85
12213;BME280;6169;44.158;22.788;2023-03-22T16:54:28;101052.59;;;19.30;51.31
12213;BME280;6169;44.158;22.788;2023-03-22T16:59:33;101056.66;;;19.37;50.70
12213;BME280;6169;44.158;22.788;2023-03-22T17:04:35;101052.75;;;19.49;50.58
12213;BME280;6169;44.158;22.788;2023-03-22T17:09:37;101042.28;;;19.06;50.85
12213;BME280;6169;44.158;22.788;2023-03-22T17:14:41;101045.41;;;18.94;50.77
12213;BME280;6169;44.158;22.788;2023-03-22T17:19:43;101056.53;;;18.69;50.62
12213;BME280;6169;44.158;22.788;2023-03-22T17:24:46;101070.88;;;18.71;49.56
12213;BME280;6169;44.158;22.788;2023-03-22T17:29:50;101073.09;;;18.59;49.02
12213;BME280;6169;44.158;22.788;2023-03-22T17:34:52;101072.38;;;18.27;49.11
12213;BME280;6169;44.158;22.788;2023-03-22T17:39:55;100934.81;;;17.22;50.56
12213;BME280;6169;44.158;22.788;2023-03-22T17:44:58;101080.63;;;18.27;49.46
12213;BME280;6169;44.158;22.788;2023-03-22T17:50:00;101082.91;;;17.79;51.58
12213;BME280;6169;44.158;22.788;2023-03-22T17:55:04;101087.00;;;18.18;51.21
12213;BME280;6169;44.158;22.788;2023-03-22T18:00:09;101086.97;;;18.98;48.02
12213;BME280;6169;44.158;22.788;2023-03-22T18:05:14;101100.56;;;18.79;47.97
12213;BME280;6169;44.158;22.788;2023-03-22T18:10:18;101107.03;;;18.44;49.10
12213;BME280;6169;44.158;22.788;2023-03-22T18:15:23;101110.72;;;18.89;48.18
12213;BME280;6169;44.158;22.788;2023-03-22T18:20:26;101125.47;;;18.43;48.62
12213;BME280;6169;44.158;22.788;2023-03-22T18:25:28;101119.19;;;18.22;47.44
12213;BME280;6169;44.158;22.788;2023-03-22T18:30:33;101110.41;;;17.90;49.33
12213;BME280;6169;44.158;22.788;2023-03-22T18:35:36;101123.88;;;17.91;50.31
12213;BME280;6169;44.158;22.788;2023-03-22T18:40:39;101131.03;;;18.02;50.39
12213;BME280;6169;44.158;22.788;2023-03-22T18:45:43;101129.38;;;17.66;50.95
12213;BME280;6169;44.158;22.788;2023-03-22T18:50:45;101129.41;;;18.01;50.36
12213;BME280;6169;44.158;22.788;2023-03-22T18:55:51;101128.53;;;17.91;49.68
12213;BME280;6169;44.158;22.788;2023-03-22T19:00:55;101135.41;;;17.63;51.64
12213;BME280;6169;44.158;22.788;2023-03-22T19:06:06;101137.91;;;17.64;50.81
12213;BME280;6169;44.158;22.788;2023-03-22T19:11:10;101131.84;;;17.42;51.06
12213;BME280;6169;44.158;22.788;2023-03-22T19:16:14;101143.06;;;17.20;51.52
12213;BME280;6169;44.158;22.788;2023-03-22T19:21:19;101137.91;;;18.05;49.89
12213;BME280;6169;44.158;22.788;2023-03-22T19:26:22;101140.63;;;18.31;48.70
12213;BME280;6169;44.158;22.788;2023-03-22T19:31:26;101139.53;;;17.60;50.94
12213;BME280;6169;44.158;22.788;2023-03-22T19:36:29;101140.09;;;17.57;50.86
12213;BME280;6169;44.158;22.788;2023-03-22T19:41:31;101135.97;;;17.85;50.23
12213;BME280;6169;44.158;22.788;2023-03-22T19:46:35;101140.13;;;17.72;51.71
12213;BME280;6169;44.158;22.788;2023-03-22T19:51:38;101132.06;;;17.30;52.21
12213;BME280;6169;44.158;22.788;2023-03-22T19:56:40;101131.22;;;17.24;53.56
12213;BME280;6169;44.158;22.788;2023-03-22T20:01:45;101131.22;;;17.24;53.13
12213;BME280;6169;44.158;22.788;2023-03-22T20:06:47;101138.53;;;16.93;54.26
12213;BME280;6169;44.158;22.788;2023-03-22T20:11:50;101139.59;;;16.87;54.45
12213;BME280;6169;44.158;22.788;2023-03-22T20:16:54;101140.75;;;16.91;54.80
12213;BME280;6169;44.158;22.788;2023-03-22T20:21:57;101138.66;;;17.29;54.11
12213;BME280;6169;44.158;22.788;2023-03-22T20:27:00;101145.25;;;16.55;56.32
12213;BME280;6169;44.158;22.788;2023-03-22T20:32:04;101156.56;;;16.68;55.75
12213;BME280;6169;44.158;22.788;2023-03-22T20:37:06;101166.06;;;17.08;53.29
12213;BME280;6169;44.158;22.788;2023-03-22T20:42:10;101076.66;;;16.12;55.19
12213;BME280;6169;44.158;22.788;2023-03-22T20:47:14;101093.97;;;16.18;55.64
12213;BME280;6169;44.158;22.788;2023-03-22T20:52:16;101142.38;;;16.39;56.00
12213;BME280;6169;44.158;22.788;2023-03-22T20:57:18;101153.72;;;16.53;55.73
12213;BME280;6169;44.158;22.788;2023-03-22T21:02:22;101157.16;;;16.81;54.60
12213;BME280;6169;44.158;22.788;2023-03-22T21:07:24;101158.16;;;16.59;54.62
12213;BME280;6169;44.158;22.788;2023-03-22T21:12:26;101156.59;;;15.94;55.94
12213;BME280;6169;44.158;22.788;2023-03-22T21:17:30;101153.13;;;16.09;55.34
12213;BME280;6169;44.158;22.788;2023-03-22T21:22:32;101153.84;;;15.94;55.81
12213;BME280;6169;44.158;22.788;2023-03-22T21:27:35;101160.91;;;15.57;56.71
12213;BME280;6169;44.158;22.788;2023-03-22T21:32:42;101166.31;;;15.52;56.15
12213;BME280;6169;44.158;22.788;2023-03-22T21:37:45;101176.75;;;15.28;55.97
12213;BME280;6169;44.158;22.788;2023-03-22T21:42:47;101177.44;;;14.91;56.51
12213;BME280;6169;44.158;22.788;2023-03-22T21:47:55;101177.59;;;15.07;55.48
12213;BME280;6169;44.158;22.788;2023-03-22T21:52:57;101179.91;;;14.71;56.45
12213;BME280;6169;44.158;22.788;2023-03-22T21:57:59;101172.38;;;14.83;55.87
12213;BME280;6169;44.158;22.788;2023-03-22T22:03:04;101173.56;;;14.70;55.00
12213;BME280;6169;44.158;22.788;2023-03-22T22:08:07;101171.69;;;14.71;54.84
12213;BME280;6169;44.158;22.788;2023-03-22T22:13:09;101172.56;;;14.38;55.58
12213;BME280;6169;44.158;22.788;2023-03-22T22:18:13;101170.16;;;14.08;54.09
12213;BME280;6169;44.158;22.788;2023-03-22T22:23:16;101171.31;;;13.95;55.08
12213;BME280;6169;44.158;22.788;2023-03-22T22:28:21;101177.22;;;13.87;54.44
12213;BME280;6169;44.158;22.788;2023-03-22T22:33:25;101170.06;;;13.40;55.37
12213;BME280;6169;44.158;22.788;2023-03-22T22:38:27;101170.25;;;13.79;53.97
12213;BME280;6169;44.158;22.788;2023-03-22T22:43:29;101172.25;;;13.72;53.76
12213;BME280;6169;44.158;22.788;2023-03-22T22:48:33;101180.66;;;13.36;54.29
12213;BME280;6169;44.158;22.788;2023-03-22T22:53:36;101176.78;;;13.49;54.51
12213;BME280;6169;44.158;22.788;2023-03-22T22:58:39;101180.56;;;12.91;55.43
12213;BME280;6169;44.158;22.788;2023-03-22T23:03:43;101182.22;;;12.92;56.50
12213;BME280;6169;44.158;22.788;2023-03-22T23:08:46;101184.13;;;12.91;54.91
12213;BME280;6169;44.158;22.788;2023-03-22T23:13:49;101181.66;;;13.19;54.33
12213;BME280;6169;44.158;22.788;2023-03-22T23:18:54;101187.03;;;13.02;54.70
12213;BME280;6169;44.158;22.788;2023-03-22T23:23:57;101183.06;;;13.21;54.84
12213;BME280;6169;44.158;22.788;2023-03-22T23:29:00;101185.84;;;13.95;51.63
12213;BME280;6169;44.158;22.788;2023-03-22T23:34:04;101183.81;;;13.45;53.76
12213;BME280;6169;44.158;22.788;2023-03-22T23:39:06;101183.25;;;13.60;52.84
12213;BME280;6169;44.158;22.788;2023-03-22T23:44:09;101188.47;;;13.04;53.17
12213;BME280;6169;44.158;22.788;2023-03-22T23:49:12;101190.03;;;13.00;52.91
12213;BME280;6169;44.158;22.788;2023-03-22T23:54:15;101176.13;;;13.13;52.23
12213;BME280;6169;44.158;22.788;2023-03-22T23:59:17;101176.31;;;12.60;53.70
